createdAt,value
2022-10-22T00:02:21.349Z,14.52
2022-10-22T00:04:50.900Z,14.65
2022-10-22T00:07:18.431Z,14.02
2022-10-22T00:09:45.633Z,14.05
2022-10-22T00:12:13.808Z,14.25
2022-10-22T00:14:41.097Z,14.93
2022-10-22T00:17:11.224Z,14.10
2022-10-22T00:19:39.515Z,15.48
2022-10-22T00:22:07.093Z,15.15
2022-10-22T00:24:34.862Z,15.63
2022-10-22T00:27:02.188Z,14.73
2022-10-22T00:29:28.974Z,16.33
2022-10-22T00:34:23.381Z,13.00
2022-10-22T00:36:51.301Z,13.65
2022-10-22T00:39:20.126Z,14.95
2022-10-22T00:41:48.633Z,14.57
2022-10-22T00:44:52.523Z,14.70
2022-10-22T00:47:20.291Z,14.38
2022-10-22T00:49:47.203Z,13.85
2022-10-22T00:52:14.372Z,13.63
2022-10-22T00:54:41.634Z,13.45
2022-10-22T00:57:08.274Z,11.45
2022-10-22T00:59:35.839Z,13.55
2022-10-22T01:02:02.472Z,13.93
2022-10-22T01:04:29.222Z,14.40
2022-10-22T01:06:55.821Z,13.25
2022-10-22T01:09:39.302Z,12.57
2022-10-22T01:12:15.677Z,13.45
2022-10-22T01:15:11.596Z,14.23
2022-10-22T01:17:51.433Z,11.82
2022-10-22T01:21:08.842Z,14.20
2022-10-22T01:23:59.627Z,13.82
2022-10-22T01:26:32.294Z,13.38
2022-10-22T01:29:01.066Z,14.15
2022-10-22T01:31:32.747Z,13.35
2022-10-22T01:34:00.298Z,13.55
2022-10-22T01:36:30.152Z,12.85
2022-10-22T01:38:57.218Z,14.82
2022-10-22T01:41:23.886Z,13.23
2022-10-22T01:43:50.506Z,13.23
2022-10-22T01:46:17.447Z,12.90
2022-10-22T01:49:00.938Z,13.07
2022-10-22T01:51:43.141Z,12.00
2022-10-22T01:54:32.770Z,13.40
2022-10-22T01:57:10.055Z,14.07
2022-10-22T01:59:45.853Z,12.80
2022-10-22T02:02:21.707Z,14.18
2022-10-22T02:04:54.704Z,14.07
2022-10-22T02:07:24.059Z,14.05
2022-10-22T02:09:52.042Z,14.02
2022-10-22T02:12:20.689Z,15.15
2022-10-22T02:14:48.451Z,14.32
2022-10-22T02:17:19.484Z,14.48
2022-10-22T02:19:58.230Z,16.23
2022-10-22T02:22:26.366Z,14.63
2022-10-22T02:24:53.025Z,13.77
2022-10-22T02:27:33.202Z,16.23
2022-10-22T02:30:11.593Z,15.18
2022-10-22T02:33:03.862Z,15.77
2022-10-22T02:35:30.866Z,14.05
2022-10-22T02:37:58.205Z,15.35
2022-10-22T02:40:25.479Z,15.45
2022-10-22T02:42:52.266Z,17.63
2022-10-22T02:45:20.196Z,14.70
2022-10-22T02:47:47.400Z,14.75
2022-10-22T02:50:14.637Z,15.55
2022-10-22T02:52:41.794Z,13.57
2022-10-22T02:55:08.778Z,14.63
2022-10-22T02:57:35.521Z,15.88
2022-10-22T03:00:02.104Z,13.95
2022-10-22T03:02:28.705Z,14.13
2022-10-22T03:04:55.297Z,13.63
2022-10-22T03:07:21.943Z,14.13
2022-10-22T03:09:48.556Z,16.38
2022-10-22T03:12:15.176Z,15.60
2022-10-22T03:14:41.828Z,16.45
2022-10-22T03:17:08.523Z,13.73
2022-10-22T03:19:35.369Z,14.13
2022-10-22T03:22:12.098Z,14.77
2022-10-22T03:24:41.729Z,14.43
2022-10-22T03:27:08.775Z,14.73
2022-10-22T03:29:37.769Z,15.70
2022-10-22T03:32:04.447Z,15.57
2022-10-22T03:34:31.042Z,15.57
2022-10-22T03:36:58.915Z,14.88
2022-10-22T03:39:26.388Z,15.13
2022-10-22T03:41:53.111Z,16.05
2022-10-22T03:44:20.177Z,14.32
2022-10-22T03:46:46.875Z,14.68
2022-10-22T03:49:13.462Z,14.23
2022-10-22T03:51:40.060Z,15.48
2022-10-22T03:54:06.871Z,15.02
2022-10-22T03:56:33.741Z,14.55
2022-10-22T03:59:01.323Z,14.20
2022-10-22T04:01:29.317Z,14.95
2022-10-22T04:03:56.900Z,15.43
2022-10-22T04:06:23.727Z,14.73
2022-10-22T04:08:50.508Z,16.08
2022-10-22T04:11:17.557Z,14.63
2022-10-22T04:13:44.885Z,14.05
2022-10-22T04:16:20.590Z,13.23
2022-10-22T04:18:48.580Z,15.43
2022-10-22T04:21:16.802Z,13.20
2022-10-22T04:23:48.163Z,12.82
2022-10-22T04:26:14.872Z,14.25
2022-10-22T04:28:41.839Z,13.82
2022-10-22T04:31:16.422Z,13.27
2022-10-22T04:33:43.131Z,13.60
2022-10-22T04:36:18.490Z,14.10
2022-10-22T04:41:20.856Z,13.77
2022-10-22T04:43:47.985Z,12.43
2022-10-22T04:46:16.650Z,13.57
2022-10-22T04:48:44.105Z,15.52
2022-10-22T04:51:16.662Z,13.23
2022-10-22T04:53:43.721Z,13.20
2022-10-22T04:56:11.482Z,14.73
2022-10-22T04:58:38.717Z,13.02
2022-10-22T05:01:39.923Z,12.45
2022-10-22T05:04:12.879Z,11.98
2022-10-22T05:06:39.717Z,11.50
2022-10-22T05:09:08.760Z,12.00
2022-10-22T05:11:37.461Z,12.02
2022-10-22T05:14:05.925Z,11.07
2022-10-22T05:16:33.736Z,11.85
2022-10-22T05:19:01.468Z,11.25
2022-10-22T05:21:28.510Z,12.48
2022-10-22T05:23:56.111Z,10.63
2022-10-22T05:26:23.838Z,11.05
2022-10-22T05:28:51.494Z,10.48
2022-10-22T05:31:18.807Z,11.25
2022-10-22T05:33:46.288Z,11.65
2022-10-22T05:36:17.051Z,11.38
2022-10-22T05:38:43.741Z,11.77
2022-10-22T05:41:16.978Z,12.60
2022-10-22T05:43:43.796Z,11.35
2022-10-22T05:46:12.872Z,11.43
2022-10-22T05:48:40.151Z,12.60
2022-10-22T05:51:13.607Z,11.40
2022-10-22T05:53:42.013Z,9.38
2022-10-22T05:56:12.563Z,11.10
2022-10-22T05:58:39.511Z,10.88
2022-10-22T06:01:15.371Z,9.18
2022-10-22T06:03:42.347Z,10.43
2022-10-22T06:06:34.108Z,10.32
2022-10-22T06:09:12.794Z,10.65
2022-10-22T06:11:39.512Z,12.55
2022-10-22T06:14:06.234Z,10.60
2022-10-22T06:16:33.173Z,12.10
2022-10-22T06:19:03.200Z,10.73
2022-10-22T06:21:30.429Z,11.52
2022-10-22T06:23:58.085Z,9.75
2022-10-22T06:26:24.914Z,12.05
2022-10-22T06:28:51.546Z,10.90
2022-10-22T06:31:18.153Z,10.82
2022-10-22T06:33:44.833Z,10.65
2022-10-22T06:36:14.335Z,10.73
2022-10-22T06:38:41.137Z,11.15
2022-10-22T06:41:13.859Z,10.80
2022-10-22T06:43:41.604Z,10.02
2022-10-22T06:46:14.770Z,9.30
2022-10-22T06:48:49.180Z,8.85
2022-10-22T06:51:15.923Z,9.15
2022-10-22T06:53:42.506Z,9.65
2022-10-22T06:56:14.410Z,10.00
2022-10-22T06:58:41.027Z,9.75
2022-10-22T07:01:10.015Z,8.43
2022-10-22T07:03:37.193Z,9.90
2022-10-22T07:06:06.484Z,9.45
2022-10-22T07:08:34.226Z,10.30
2022-10-22T07:11:08.077Z,10.73
2022-10-22T07:13:35.427Z,9.37
2022-10-22T07:16:02.516Z,9.35
2022-10-22T07:18:29.275Z,9.63
2022-10-22T07:20:56.002Z,8.80
2022-10-22T07:23:22.900Z,8.10
2022-10-22T07:25:49.699Z,9.93
2022-10-22T07:28:16.307Z,10.00
2022-10-22T07:30:43.277Z,8.98
2022-10-22T07:33:10.053Z,8.68
2022-10-22T07:35:38.117Z,9.38
2022-10-22T07:38:05.212Z,8.25
2022-10-22T07:40:31.957Z,8.10
2022-10-22T07:42:58.599Z,8.95
2022-10-22T07:45:25.211Z,8.35
2022-10-22T07:47:51.799Z,8.00
2022-10-22T07:50:19.647Z,7.32
2022-10-22T07:52:46.720Z,8.25
2022-10-22T07:55:13.598Z,6.85
2022-10-22T07:57:40.832Z,8.15
2022-10-22T08:00:09.152Z,7.35
2022-10-22T08:02:35.778Z,8.75
2022-10-22T08:05:02.446Z,8.07
2022-10-22T08:07:29.126Z,7.18
2022-10-22T08:09:55.770Z,7.90
2022-10-22T08:12:22.383Z,7.65
2022-10-22T08:14:49.069Z,6.25
2022-10-22T08:17:15.939Z,8.05
2022-10-22T08:19:42.527Z,8.18
2022-10-22T08:22:09.270Z,8.18
2022-10-22T08:24:35.875Z,7.78
2022-10-22T08:27:02.593Z,7.28
2022-10-22T08:29:29.182Z,8.40
2022-10-22T08:31:55.911Z,8.05
2022-10-22T08:34:22.594Z,9.38
2022-10-22T08:36:49.293Z,8.07
2022-10-22T08:39:15.995Z,8.35
2022-10-22T08:42:01.173Z,8.10
2022-10-22T08:44:43.105Z,7.93
2022-10-22T08:47:09.629Z,8.75
2022-10-22T08:49:42.026Z,8.90
2022-10-22T08:52:14.832Z,6.97
2022-10-22T08:54:55.149Z,8.07
2022-10-22T08:57:43.862Z,7.88
2022-10-22T09:00:20.651Z,7.88
2022-10-22T09:02:57.220Z,7.57
2022-10-22T09:05:42.162Z,8.23
2022-10-22T09:08:13.480Z,7.07
2022-10-22T09:10:43.904Z,7.28
2022-10-22T09:13:14.580Z,7.35
2022-10-22T09:15:43.718Z,6.57
2022-10-22T09:18:19.677Z,8.55
2022-10-22T09:21:07.033Z,8.52
2022-10-22T09:23:39.750Z,7.68
2022-10-22T09:26:15.021Z,8.57
2022-10-22T09:31:13.540Z,9.52
2022-10-22T09:33:42.319Z,8.35
2022-10-22T09:36:13.588Z,7.78
2022-10-22T09:38:45.451Z,7.55
2022-10-22T09:41:12.254Z,7.20
2022-10-22T09:43:38.859Z,7.28
2022-10-22T09:46:08.379Z,7.97
2022-10-22T09:48:41.689Z,13.73
2022-10-22T09:51:15.316Z,7.65
2022-10-22T09:53:43.813Z,11.43
2022-10-22T09:56:36.408Z,9.40
2022-10-22T09:59:03.372Z,9.23
2022-10-22T10:01:35.589Z,12.70
2022-10-22T10:04:11.449Z,11.38
2022-10-22T10:06:40.696Z,10.50
2022-10-22T10:09:17.253Z,12.10
2022-10-22T10:11:52.633Z,9.52
2022-10-22T10:17:50.692Z,9.15
2022-10-22T10:20:24.355Z,10.10
2022-10-22T10:23:39.046Z,9.00
2022-10-22T10:26:34.787Z,9.55
2022-10-22T10:29:21.005Z,7.90
2022-10-22T10:32:06.222Z,7.63
2022-10-22T10:35:03.582Z,7.75
2022-10-22T10:37:35.864Z,8.85
2022-10-22T10:40:33.573Z,8.70
2022-10-22T10:43:20.029Z,8.88
2022-10-22T10:45:56.009Z,8.70
2022-10-22T10:48:34.680Z,9.18
2022-10-22T10:51:32.284Z,8.10
2022-10-22T10:54:19.414Z,9.38
2022-10-22T10:56:53.547Z,8.02
2022-10-22T10:59:32.275Z,8.52
2022-10-22T11:02:18.620Z,8.82
2022-10-22T11:05:15.835Z,8.45
2022-10-22T11:07:51.000Z,7.35
2022-10-22T11:10:28.336Z,8.00
2022-10-22T11:13:01.315Z,7.72
2022-10-22T11:15:32.669Z,9.07
2022-10-22T11:18:18.086Z,8.65
2022-10-22T11:20:50.175Z,7.47
2022-10-22T11:23:22.158Z,8.05
2022-10-22T11:25:50.661Z,17.90
2022-10-22T11:28:27.998Z,23.30
2022-10-22T11:31:02.155Z,12.73
2022-10-22T11:33:38.644Z,10.00
2022-10-22T11:36:06.782Z,8.65
2022-10-22T11:38:35.801Z,9.88
2022-10-22T11:41:07.168Z,8.23
2022-10-22T11:43:56.587Z,8.98
2022-10-22T11:46:23.154Z,8.32
2022-10-22T11:49:09.925Z,8.63
2022-10-22T11:51:38.971Z,8.85
2022-10-22T11:54:30.226Z,8.45
2022-10-22T11:57:14.877Z,8.90
2022-10-22T11:59:47.642Z,9.35
2022-10-22T12:02:38.872Z,8.02
2022-10-22T12:05:24.114Z,8.60
2022-10-22T12:07:57.297Z,7.63
2022-10-22T12:10:30.122Z,9.20
2022-10-22T12:13:14.425Z,9.80
2022-10-22T12:15:48.718Z,7.95
2022-10-22T12:18:16.361Z,9.23
2022-10-22T12:20:43.054Z,10.02
2022-10-22T12:23:11.778Z,8.38
2022-10-22T12:25:39.333Z,7.15
2022-10-22T12:28:12.068Z,8.82
2022-10-22T12:30:39.020Z,8.40
2022-10-22T12:33:07.951Z,8.40
2022-10-22T12:35:45.713Z,8.50
2022-10-22T12:38:18.377Z,9.30
2022-10-22T12:40:48.480Z,8.70
2022-10-22T12:43:29.906Z,9.70
2022-10-22T12:45:57.926Z,9.50
2022-10-22T12:48:30.892Z,8.68
2022-10-22T12:51:02.228Z,9.60
2022-10-22T12:53:33.515Z,9.95
2022-10-22T12:56:02.789Z,8.82
2022-10-22T12:58:34.856Z,8.43
2022-10-22T13:01:04.369Z,9.93
2022-10-22T13:03:38.747Z,8.82
2022-10-22T13:06:22.486Z,9.30
2022-10-22T13:09:19.680Z,9.93
2022-10-22T13:12:06.837Z,8.95
2022-10-22T13:14:36.043Z,9.80
2022-10-22T13:17:08.610Z,9.77
2022-10-22T13:19:49.846Z,11.05
2022-10-22T13:22:32.397Z,12.80
2022-10-22T13:25:19.072Z,10.35
2022-10-22T13:28:15.189Z,10.43
2022-10-22T13:30:52.784Z,10.30
2022-10-22T13:33:26.617Z,10.07
2022-10-22T13:35:55.609Z,12.88
2022-10-22T13:38:25.545Z,13.68
2022-10-22T13:40:52.162Z,10.73
2022-10-22T13:43:19.152Z,10.63
2022-10-22T13:45:47.298Z,12.00
2022-10-22T13:48:21.857Z,10.98
2022-10-22T13:50:49.825Z,13.45
2022-10-22T13:53:22.713Z,10.93
2022-10-22T13:55:50.363Z,11.27
2022-10-22T13:58:21.493Z,12.20
2022-10-22T14:00:59.311Z,10.93
2022-10-22T14:03:33.518Z,9.70
2022-10-22T14:06:00.507Z,11.05
2022-10-22T14:08:27.723Z,11.10
2022-10-22T14:10:54.821Z,12.00
2022-10-22T14:13:21.697Z,12.05
2022-10-22T14:15:50.105Z,11.82
2022-10-22T14:18:25.386Z,10.98
2022-10-22T14:23:28.616Z,11.68
2022-10-22T14:25:55.950Z,11.32
2022-10-22T14:28:22.683Z,12.98
2022-10-22T14:30:53.372Z,12.38
2022-10-22T14:33:28.992Z,17.77
2022-10-22T14:35:58.406Z,13.52
2022-10-22T14:38:24.989Z,12.52
2022-10-22T14:40:51.750Z,15.82
2022-10-22T14:43:27.499Z,13.60
2022-10-22T14:45:54.695Z,14.68
2022-10-22T14:48:21.470Z,14.38
2022-10-22T14:50:48.517Z,14.55
2022-10-22T14:53:16.941Z,12.10
2022-10-22T14:55:44.972Z,11.88
2022-10-22T14:58:12.528Z,12.10
2022-10-22T15:00:42.289Z,13.07
2022-10-22T15:03:09.518Z,11.82
2022-10-22T15:05:36.469Z,12.15
2022-10-22T15:08:03.424Z,12.32
2022-10-22T15:10:30.035Z,12.27
2022-10-22T15:12:56.622Z,12.80
2022-10-22T15:15:24.567Z,13.48
2022-10-22T15:17:52.261Z,13.13
2022-10-22T15:20:18.944Z,13.35
2022-10-22T15:22:45.732Z,15.02
2022-10-22T15:25:13.627Z,13.70
2022-10-22T15:27:40.706Z,13.55
2022-10-22T15:30:08.107Z,13.40
2022-10-22T15:32:34.995Z,14.30
2022-10-22T15:35:01.838Z,15.00
2022-10-22T15:37:28.573Z,13.68
2022-10-22T15:39:55.254Z,14.35
2022-10-22T15:42:23.351Z,14.00
2022-10-22T15:44:50.049Z,15.90
2022-10-22T15:47:16.716Z,14.13
2022-10-22T15:49:43.404Z,12.93
2022-10-22T15:52:10.060Z,11.70
2022-10-22T15:54:36.714Z,14.93
2022-10-22T15:57:08.416Z,15.63
2022-10-22T15:59:36.151Z,14.50
2022-10-22T16:02:02.939Z,13.65
2022-10-22T16:04:29.548Z,14.38
2022-10-22T16:06:58.077Z,14.75
2022-10-22T16:09:26.575Z,20.15
2022-10-22T16:11:54.824Z,14.55
2022-10-22T16:14:22.433Z,14.65
2022-10-22T16:16:51.650Z,19.20
2022-10-22T16:19:20.469Z,16.50
2022-10-22T16:21:50.822Z,18.33
2022-10-22T16:24:18.098Z,16.13
2022-10-22T16:26:44.859Z,16.85
2022-10-22T16:29:12.727Z,15.70
2022-10-22T16:31:40.989Z,18.20
2022-10-22T16:34:08.230Z,22.08
2022-10-22T16:36:36.401Z,22.92
2022-10-22T16:39:04.555Z,21.73
2022-10-22T16:41:37.671Z,19.83
2022-10-22T16:44:07.951Z,17.25
2022-10-22T16:46:36.847Z,15.25
2022-10-22T16:49:03.460Z,21.33
2022-10-22T16:51:30.253Z,26.05
2022-10-22T16:53:57.661Z,14.65
2022-10-22T16:56:25.143Z,17.73
2022-10-22T16:58:56.695Z,15.60
2022-10-22T17:01:26.469Z,15.20
2022-10-22T17:03:54.730Z,19.70
2022-10-22T17:06:22.680Z,15.02
2022-10-22T17:08:49.491Z,15.43
2022-10-22T17:11:18.502Z,15.85
2022-10-22T17:13:47.075Z,15.85
2022-10-22T17:16:15.753Z,17.65
2022-10-22T17:18:43.573Z,19.83
2022-10-22T17:21:11.323Z,20.42
2022-10-22T17:23:38.145Z,20.60
2022-10-22T17:26:09.427Z,20.58
2022-10-22T17:28:36.581Z,20.60
2022-10-22T17:31:26.970Z,21.35
2022-10-22T17:33:55.032Z,21.02
2022-10-22T17:36:22.939Z,22.70
2022-10-22T17:38:51.628Z,23.65
2022-10-22T17:41:20.978Z,25.08
2022-10-22T17:43:47.854Z,26.50
2022-10-22T17:46:23.260Z,27.33
2022-10-22T17:48:55.534Z,29.45
2022-10-22T17:51:23.410Z,31.02
2022-10-22T17:53:50.841Z,28.95
2022-10-22T17:56:30.088Z,27.45
2022-10-22T17:58:56.910Z,26.92
2022-10-22T18:01:32.388Z,25.27
2022-10-22T18:04:01.583Z,23.83
2022-10-22T18:06:28.945Z,21.65
2022-10-22T18:08:55.879Z,22.98
2022-10-22T18:11:24.862Z,23.33
2022-10-22T18:13:55.217Z,22.35
2022-10-22T18:16:21.936Z,23.13
2022-10-22T18:18:50.436Z,21.98
2022-10-22T18:21:17.797Z,22.23
2022-10-22T18:23:45.137Z,23.48
2022-10-22T18:26:12.384Z,24.75
2022-10-22T18:28:39.029Z,24.73
2022-10-22T18:31:09.729Z,24.98
2022-10-22T21:11:28.980Z,21.42
2022-10-22T21:13:55.647Z,21.08
2022-10-22T21:16:22.297Z,22.75
2022-10-22T21:18:49.018Z,22.23
2022-10-22T21:21:17.683Z,27.20
2022-10-22T21:23:44.360Z,21.25
2022-10-22T21:26:11.217Z,22.38
2022-10-22T21:28:38.794Z,23.52
2022-10-22T21:31:07.889Z,22.63
2022-10-22T21:33:39.536Z,22.50
2022-10-22T21:36:09.504Z,23.85
2022-10-22T21:38:37.611Z,23.40
2022-10-22T21:41:09.342Z,24.50
2022-10-22T21:43:40.314Z,24.20
2022-10-22T21:46:13.650Z,24.52
2022-10-22T21:48:43.047Z,25.95
2022-10-22T21:51:15.075Z,25.15
2022-10-22T21:53:42.352Z,25.27
2022-10-22T21:56:15.425Z,28.33
2022-10-22T21:58:42.434Z,25.83
2022-10-22T22:01:09.156Z,28.08
2022-10-22T22:03:35.840Z,27.08
2022-10-22T22:06:05.597Z,30.00
2022-10-22T22:08:33.562Z,30.27
2022-10-22T22:11:02.589Z,28.45
2022-10-22T22:13:29.366Z,29.73
2022-10-22T22:16:03.262Z,27.75
2022-10-22T22:18:31.265Z,27.73
2022-10-22T22:20:58.369Z,30.33
2022-10-22T22:23:25.419Z,29.50
2022-10-22T22:25:52.222Z,28.73
2022-10-22T22:28:18.814Z,29.27
2022-10-22T22:30:45.431Z,30.00
2022-10-22T22:33:12.607Z,29.42
2022-10-22T22:38:07.117Z,29.80
2022-10-22T22:40:34.018Z,30.85
2022-10-22T22:43:00.671Z,30.20
2022-10-22T22:45:27.326Z,27.15
2022-10-22T22:47:53.989Z,29.05
2022-10-22T22:50:21.563Z,25.85
2022-10-22T22:52:49.274Z,28.52
2022-10-22T22:55:16.129Z,26.30
2022-10-22T22:57:42.784Z,29.27
2022-10-22T23:00:09.938Z,29.15
2022-10-22T23:02:36.917Z,30.55
2022-10-22T23:05:03.628Z,27.00
2022-10-22T23:07:30.325Z,27.13
2022-10-22T23:09:56.977Z,26.15
2022-10-22T23:12:23.696Z,28.05
2022-10-22T23:14:54.054Z,27.58
2022-10-22T23:17:20.709Z,29.00
2022-10-22T23:19:47.362Z,27.85
2022-10-22T23:22:14.079Z,28.25
2022-10-22T23:24:40.709Z,27.50
2022-10-22T23:27:07.430Z,28.23
2022-10-22T23:29:38.351Z,32.00
2022-10-22T23:32:07.621Z,27.48
2022-10-22T23:34:34.272Z,29.42
2022-10-22T23:37:00.960Z,25.98
2022-10-22T23:39:28.881Z,26.45
2022-10-22T23:41:56.019Z,25.23
2022-10-22T23:44:23.475Z,26.15
2022-10-22T23:46:50.442Z,25.52
2022-10-22T23:49:17.644Z,24.75
2022-10-22T23:51:44.282Z,26.88
2022-10-22T23:54:14.511Z,25.50
2022-10-22T23:56:41.493Z,25.65
2022-10-22T23:59:08.841Z,25.83
